Time;durP1;ratioP1;P1;durP2;ratioP2;P2;SDS_P1;SDS_P2;PMS_P1;PMS_P2;Temp;Humidity;BMP_temperature;BMP_pressure;BME280_temperature;BME280_humidity;BME280_pressure;Samples;Min_cycle;Max_cycle;Signal;HPM_P1;HPM_P2
2023/12/21 00:02:24;;;;;;;2.60;1.20;;;;;;;;;;6091987;23;20174;-88
2023/12/21 00:05:39;;;;;;;4.53;1.03;;;;;;;;;;6093282;23;20177;-88
2023/12/21 00:08:50;;;;;;;6.13;1.50;;;;;;;;;;6092980;23;20162;-89
2023/12/21 00:12:02;;;;;;;2.30;1.27;;;;;;;;;;6096533;23;20158;-89
2023/12/21 00:15:14;;;;;;;3.77;1.20;;;;;;;;;;6095825;23;20245;-91
2023/12/21 00:18:27;;;;;;;3.80;1.37;;;;;;;;;;6094464;23;20268;-86
2023/12/21 00:21:40;;;;;;;7.00;1.17;;;;;;;;;;6095611;23;20170;-91
2023/12/21 00:24:51;;;;;;;4.57;1.47;;;;;;;;;;6094004;23;20172;-88
2023/12/21 00:28:02;;;;;;;2.87;1.10;;;;;;;;;;6094210;23;20215;-90
2023/12/21 00:31:15;;;;;;;2.83;1.10;;;;;;;;;;6092490;23;20154;-90
2023/12/21 00:34:28;;;;;;;5.37;1.23;;;;;;;;;;6093628;23;20181;-89
2023/12/21 00:37:40;;;;;;;5.13;1.10;;;;;;;;;;6093460;23;20314;-90
2023/12/21 00:40:53;;;;;;;3.67;1.10;;;;;;;;;;6097175;23;20218;-87
2023/12/21 00:44:04;;;;;;;5.00;1.33;;;;;;;;;;6094202;23;20496;-91
2023/12/21 00:47:17;;;;;;;4.27;1.50;;;;;;;;;;6096085;23;20166;-90
2023/12/21 00:50:31;;;;;;;5.80;1.13;;;;;;;;;;6099547;23;20166;-90
2023/12/21 00:53:42;;;;;;;3.07;1.10;;;;;;;;;;6095221;23;20181;-92
2023/12/21 00:56:54;;;;;;;6.43;1.30;;;;;;;;;;6092886;23;20198;-89
2023/12/21 01:00:07;;;;;;;4.03;0.80;;;;;;;;;;6092979;23;20238;-92
2023/12/21 01:03:19;;;;;;;3.60;1.17;;;;;;;;;;6092788;23;20255;-90
2023/12/21 01:06:36;;;;;;;4.60;1.13;;;;;;;;;;6094042;23;20178;-90
2023/12/21 01:09:48;;;;;;;3.43;0.90;;;;;;;;;;6092609;23;20173;-86
2023/12/21 01:13:00;;;;;;;7.27;1.00;;;;;;;;;;6092000;23;20162;-91
2023/12/21 01:16:13;;;;;;;5.87;1.07;;;;;;;;;;6092807;23;20198;-91
2023/12/21 01:19:24;;;;;;;2.33;0.90;;;;;;;;;;6093625;23;20169;-90
2023/12/21 01:22:38;;;;;;;4.57;1.20;;;;;;;;;;6093571;23;20266;-90
2023/12/21 01:25:49;;;;;;;3.63;0.90;;;;;;;;;;6091261;23;20173;-89
2023/12/21 01:29:01;;;;;;;4.87;1.20;;;;;;;;;;6092966;23;20149;-90
2023/12/21 01:32:12;;;;;;;2.30;0.90;;;;;;;;;;6093292;23;20174;-90
2023/12/21 01:35:23;;;;;;;5.17;1.30;;;;;;;;;;6094307;23;20198;-93
2023/12/21 01:38:37;;;;;;;4.97;0.97;;;;;;;;;;6093717;23;20170;-90
2023/12/21 01:41:49;;;;;;;4.80;1.27;;;;;;;;;;6094204;23;20174;-91
2023/12/21 01:45:00;;;;;;;1.40;0.80;;;;;;;;;;6094315;23;20209;-90
2023/12/21 01:48:12;;;;;;;4.03;0.90;;;;;;;;;;6093209;23;20635;-95
2023/12/21 01:51:23;;;;;;;3.03;1.17;;;;;;;;;;6091816;23;20557;-88
2023/12/21 01:54:37;;;;;;;6.17;1.20;;;;;;;;;;6095455;23;20174;-88
2023/12/21 01:57:49;;;;;;;3.10;0.97;;;;;;;;;;6094202;23;20221;-91
2023/12/21 02:01:01;;;;;;;3.77;1.17;;;;;;;;;;6093964;23;20199;-93
2023/12/21 02:04:13;;;;;;;2.33;0.80;;;;;;;;;;6092434;23;20166;-89
2023/12/21 02:07:24;;;;;;;2.47;0.80;;;;;;;;;;6092903;23;20158;-90
2023/12/21 02:10:39;;;;;;;2.30;0.90;;;;;;;;;;6093290;23;20222;-89
2023/12/21 02:13:50;;;;;;;2.00;1.00;;;;;;;;;;6094637;23;20170;-89
2023/12/21 02:17:04;;;;;;;2.70;0.60;;;;;;;;;;6093334;23;20197;-91
2023/12/21 02:20:17;;;;;;;2.90;1.00;;;;;;;;;;6093322;23;20157;-90
2023/12/21 02:23:30;;;;;;;0.77;0.60;;;;;;;;;;6093524;23;20630;-90
2023/12/21 02:26:43;;;;;;;3.90;1.07;;;;;;;;;;6093594;23;20198;-90
2023/12/21 02:29:55;;;;;;;4.30;0.90;;;;;;;;;;6095051;23;20241;-90
2023/12/21 02:33:06;;;;;;;1.93;0.60;;;;;;;;;;6095362;23;20190;-91
2023/12/21 02:36:18;;;;;;;1.57;0.93;;;;;;;;;;6094991;23;20220;-88
2023/12/21 02:39:30;;;;;;;2.83;0.77;;;;;;;;;;6095901;23;20194;-92
2023/12/21 02:42:43;;;;;;;2.10;0.80;;;;;;;;;;6095832;23;20173;-86
2023/12/21 02:45:55;;;;;;;2.43;0.80;;;;;;;;;;6095453;23;20189;-88
2023/12/21 02:49:07;;;;;;;1.90;0.70;;;;;;;;;;6094158;23;20173;-86
2023/12/21 02:52:18;;;;;;;4.50;1.00;;;;;;;;;;6094676;23;20178;-89
2023/12/21 02:55:29;;;;;;;1.50;0.80;;;;;;;;;;6094462;23;20218;-90
2023/12/21 02:58:43;;;;;;;2.97;0.87;;;;;;;;;;6092137;23;20170;-90
2023/12/21 03:01:54;;;;;;;3.80;0.80;;;;;;;;;;6092285;23;20174;-90
2023/12/21 03:05:05;;;;;;;5.27;0.90;;;;;;;;;;6092095;23;20166;-90
2023/12/21 03:08:17;;;;;;;3.10;0.93;;;;;;;;;;6092895;23;20501;-90
2023/12/21 03:11:28;;;;;;;0.73;0.60;;;;;;;;;;6091656;23;20181;-88
2023/12/21 03:14:42;;;;;;;2.53;0.80;;;;;;;;;;6091628;23;20215;-88
2023/12/21 03:17:56;;;;;;;3.87;0.77;;;;;;;;;;6094142;23;20182;-92
2023/12/21 03:21:07;;;;;;;4.20;0.90;;;;;;;;;;6094822;23;20166;-90
2023/12/21 03:24:18;;;;;;;2.73;0.90;;;;;;;;;;6093629;23;20234;-91
2023/12/21 03:27:30;;;;;;;0.80;0.70;;;;;;;;;;6092769;23;20208;-87
2023/12/21 03:30:44;;;;;;;8.63;0.80;;;;;;;;;;6092570;23;20242;-89
2023/12/21 03:33:55;;;;;;;2.47;1.00;;;;;;;;;;6093137;23;20629;-91
2023/12/21 03:37:08;;;;;;;2.87;0.90;;;;;;;;;;6093961;23;20293;-91
2023/12/21 03:40:20;;;;;;;3.10;1.10;;;;;;;;;;6092371;23;20236;-88
2023/12/21 03:43:32;;;;;;;3.37;0.90;;;;;;;;;;6093353;23;20166;-92
2023/12/21 03:46:44;;;;;;;1.73;0.67;;;;;;;;;;6094051;23;20178;-88
2023/12/21 03:49:56;;;;;;;2.17;0.73;;;;;;;;;;6095671;23;20178;-90
2023/12/21 03:53:08;;;;;;;12.00;3.10;;;;;;;;;;6094754;23;20492;-91
2023/12/21 03:56:20;;;;;;;5.07;1.90;;;;;;;;;;6090110;23;20210;-91
2023/12/21 03:59:31;;;;;;;4.33;1.73;;;;;;;;;;6088960;23;20202;-89
2023/12/21 04:02:45;;;;;;;1.83;1.03;;;;;;;;;;6089420;23;20173;-89
2023/12/21 04:05:57;;;;;;;4.33;1.00;;;;;;;;;;6092411;23;20189;-90
2023/12/21 04:09:09;;;;;;;2.57;1.07;;;;;;;;;;6096155;23;20196;-85
2023/12/21 04:12:21;;;;;;;2.43;0.93;;;;;;;;;;6093334;23;20166;-88
2023/12/21 04:15:33;;;;;;;2.17;1.03;;;;;;;;;;6093346;23;20675;-89
2023/12/21 04:18:46;;;;;;;2.40;0.90;;;;;;;;;;6092683;23;20178;-89
2023/12/21 04:21:58;;;;;;;1.30;0.90;;;;;;;;;;6092137;23;20190;-86
2023/12/21 04:25:10;;;;;;;2.20;0.77;;;;;;;;;;6093367;23;20170;-90
2023/12/21 04:28:22;;;;;;;2.60;0.90;;;;;;;;;;6093024;23;20170;-86
2023/12/21 04:31:34;;;;;;;2.60;0.80;;;;;;;;;;6094034;23;20547;-88
2023/12/21 04:34:47;;;;;;;4.07;1.17;;;;;;;;;;6095126;23;20174;-92
2023/12/21 04:37:59;;;;;;;4.87;1.13;;;;;;;;;;6094704;23;20196;-90
2023/12/21 04:41:11;;;;;;;1.60;0.67;;;;;;;;;;6094857;23;20186;-89
2023/12/21 04:44:23;;;;;;;1.73;0.80;;;;;;;;;;6094145;23;20165;-90
2023/12/21 04:47:35;;;;;;;1.00;0.87;;;;;;;;;;6095601;23;20165;-90
2023/12/21 04:50:49;;;;;;;0.60;0.60;;;;;;;;;;6096430;23;20170;-89
2023/12/21 04:54:01;;;;;;;1.33;0.70;;;;;;;;;;6095956;23;20607;-89
2023/12/21 04:57:12;;;;;;;0.80;0.60;;;;;;;;;;6095676;23;20353;-90
2023/12/21 05:00:25;;;;;;;3.00;0.80;;;;;;;;;;6095489;23;20272;-89
2023/12/21 05:03:37;;;;;;;1.17;0.60;;;;;;;;;;6093316;23;20174;-89
2023/12/21 05:06:50;;;;;;;0.87;0.70;;;;;;;;;;6093550;23;20253;-90
2023/12/21 05:10:03;;;;;;;2.67;0.70;;;;;;;;;;6094801;23;20499;-91
2023/12/21 05:13:14;;;;;;;3.80;1.33;;;;;;;;;;6092173;23;20169;-89
2023/12/21 05:16:26;;;;;;;0.30;0.30;;;;;;;;;;6091668;23;20193;-89
2023/12/21 05:19:38;;;;;;;0.30;0.30;;;;;;;;;;6095910;23;20256;-91
2023/12/21 05:22:51;;;;;;;0.30;0.30;;;;;;;;;;6093086;23;20218;-90
2023/12/21 05:26:03;;;;;;;0.30;0.30;;;;;;;;;;6094970;23;20174;-88
2023/12/21 05:29:15;;;;;;;1.10;0.60;;;;;;;;;;6093555;23;20170;-88
2023/12/21 05:32:29;;;;;;;0.30;0.30;;;;;;;;;;6093796;23;20158;-89
2023/12/21 05:35:40;;;;;;;0.30;0.30;;;;;;;;;;6094791;23;20194;-92
2023/12/21 05:38:55;;;;;;;0.37;0.37;;;;;;;;;;6094388;23;20218;-89
2023/12/21 05:42:11;;;;;;;0.97;0.90;;;;;;;;;;6094981;23;20173;-89
2023/12/21 05:45:23;;;;;;;0.40;0.40;;;;;;;;;;6094364;23;20174;-90
2023/12/21 05:48:35;;;;;;;0.40;0.40;;;;;;;;;;6097110;23;20169;-89
2023/12/21 05:51:49;;;;;;;0.30;0.30;;;;;;;;;;6094019;23;20178;-90
2023/12/21 05:55:03;;;;;;;0.40;0.40;;;;;;;;;;6096278;23;20158;-87
2023/12/21 05:58:15;;;;;;;0.30;0.30;;;;;;;;;;6096989;23;20200;-92
2023/12/21 06:01:27;;;;;;;0.30;0.30;;;;;;;;;;6097784;23;20227;-89
2023/12/21 06:04:42;;;;;;;0.30;0.30;;;;;;;;;;6097294;23;20214;-89
2023/12/21 06:07:53;;;;;;;0.70;0.70;;;;;;;;;;6098710;23;20175;-90
2023/12/21 06:11:06;;;;;;;0.30;0.30;;;;;;;;;;6096579;23;20166;-87
2023/12/21 06:14:18;;;;;;;1.43;1.33;;;;;;;;;;6093720;23;20219;-89
2023/12/21 06:17:30;;;;;;;0.40;0.40;;;;;;;;;;6097506;23;20618;-88
2023/12/21 06:20:42;;;;;;;0.40;0.40;;;;;;;;;;6096468;23;20196;-90
2023/12/21 06:23:56;;;;;;;0.30;0.30;;;;;;;;;;6096836;23;20218;-87
2023/12/21 06:27:12;;;;;;;0.20;0.20;;;;;;;;;;6095630;23;20170;-87
2023/12/21 06:30:23;;;;;;;0.67;0.40;;;;;;;;;;6095556;23;20176;-88
2023/12/21 06:33:35;;;;;;;0.30;0.30;;;;;;;;;;6096294;23;20593;-86
2023/12/21 06:36:47;;;;;;;2.37;1.43;;;;;;;;;;6095525;23;20217;-88
2023/12/21 06:39:59;;;;;;;0.40;0.40;;;;;;;;;;6097167;23;20174;-89
2023/12/21 06:43:13;;;;;;;0.30;0.30;;;;;;;;;;6095990;23;20273;-89
2023/12/21 06:46:27;;;;;;;0.30;0.30;;;;;;;;;;6097108;23;20158;-88
2023/12/21 06:49:39;;;;;;;0.67;0.67;;;;;;;;;;6098528;23;20189;-93
2023/12/21 06:52:51;;;;;;;0.30;0.30;;;;;;;;;;6096874;23;20182;-90
2023/12/21 06:56:09;;;;;;;0.70;0.70;;;;;;;;;;6096344;23;20169;-89
2023/12/21 06:59:22;;;;;;;0.30;0.30;;;;;;;;;;6094304;23;20170;-90
2023/12/21 07:02:34;;;;;;;0.63;0.50;;;;;;;;;;6095627;23;20232;-93
2023/12/21 07:05:45;;;;;;;0.30;0.30;;;;;;;;;;6095334;23;20162;-92
2023/12/21 07:08:57;;;;;;;0.30;0.30;;;;;;;;;;6093845;23;20241;-87
2023/12/21 07:12:08;;;;;;;0.30;0.30;;;;;;;;;;6093028;23;20157;-88
2023/12/21 07:15:22;;;;;;;0.30;0.30;;;;;;;;;;6095289;23;20169;-91
2023/12/21 07:18:33;;;;;;;0.30;0.30;;;;;;;;;;6095010;23;20220;-88
2023/12/21 07:21:45;;;;;;;0.43;0.43;;;;;;;;;;6096539;23;20171;-88
2023/12/21 07:24:57;;;;;;;0.30;0.30;;;;;;;;;;6095724;23;20162;-88
2023/12/21 07:28:08;;;;;;;0.30;0.30;;;;;;;;;;6097430;23;20219;-89
2023/12/21 07:31:22;;;;;;;0.30;0.30;;;;;;;;;;6098054;23;20173;-89
2023/12/21 07:34:42;;;;;;;1.23;0.90;;;;;;;;;;6098465;23;20174;-89
2023/12/21 07:37:54;;;;;;;0.20;0.20;;;;;;;;;;6096915;23;20218;-89
2023/12/21 07:41:06;;;;;;;0.33;0.33;;;;;;;;;;6099014;23;20177;-90
2023/12/21 07:44:22;;;;;;;0.30;0.30;;;;;;;;;;6097491;23;20158;-91
2023/12/21 07:47:35;;;;;;;0.60;0.53;;;;;;;;;;6099423;23;20226;-91
2023/12/21 07:50:47;;;;;;;0.30;0.30;;;;;;;;;;6096611;23;20179;-88
2023/12/21 07:53:59;;;;;;;0.20;0.20;;;;;;;;;;6094896;23;20310;-89
2023/12/21 07:57:12;;;;;;;0.20;0.20;;;;;;;;;;6093725;23;20220;-90
2023/12/21 08:00:24;;;;;;;0.30;0.30;;;;;;;;;;6094878;23;20177;-91
2023/12/21 08:03:38;;;;;;;0.40;0.40;;;;;;;;;;6091552;23;20174;-89
2023/12/21 08:06:49;;;;;;;0.20;0.20;;;;;;;;;;6092441;23;20169;-89
2023/12/21 08:10:01;;;;;;;0.20;0.20;;;;;;;;;;6090170;23;20187;-90
2023/12/21 08:13:14;;;;;;;0.23;0.23;;;;;;;;;;6093847;23;20203;-88
2023/12/21 08:16:26;;;;;;;0.57;0.50;;;;;;;;;;6095724;23;20295;-90
2023/12/21 08:19:45;;;;;;;0.30;0.30;;;;;;;;;;6098848;23;20170;-89
2023/12/21 08:22:56;;;;;;;0.30;0.30;;;;;;;;;;6096278;23;20166;-90
2023/12/21 08:26:09;;;;;;;0.20;0.20;;;;;;;;;;6097433;23;20170;-91
2023/12/21 08:29:21;;;;;;;0.40;0.40;;;;;;;;;;6094437;23;20299;-92
2023/12/21 08:32:33;;;;;;;0.23;0.23;;;;;;;;;;6096900;23;20252;-91
2023/12/21 08:35:49;;;;;;;0.30;0.30;;;;;;;;;;6098159;23;20194;-89
2023/12/21 08:39:03;;;;;;;0.30;0.30;;;;;;;;;;6100490;23;20238;-92
2023/12/21 08:42:17;;;;;;;0.60;0.60;;;;;;;;;;6098627;23;20245;-87
2023/12/21 08:45:31;;;;;;;0.30;0.30;;;;;;;;;;6101487;23;20174;-90
2023/12/21 08:48:43;;;;;;;1.33;0.57;;;;;;;;;;6095429;23;20501;-89
2023/12/21 08:51:57;;;;;;;0.30;0.30;;;;;;;;;;6095122;23;20263;-90
2023/12/21 08:55:09;;;;;;;0.40;0.40;;;;;;;;;;6094246;23;20177;-89
2023/12/21 08:58:20;;;;;;;0.30;0.30;;;;;;;;;;6096595;23;20202;-90
2023/12/21 09:01:32;;;;;;;0.20;0.20;;;;;;;;;;6097497;23;20654;-92
2023/12/21 09:04:43;;;;;;;0.30;0.30;;;;;;;;;;6095678;23;20622;-89
2023/12/21 09:07:56;;;;;;;0.40;0.40;;;;;;;;;;6096232;23;20230;-88
2023/12/21 09:11:08;;;;;;;0.30;0.30;;;;;;;;;;6094216;23;20221;-89
2023/12/21 09:14:22;;;;;;;1.17;0.40;;;;;;;;;;6096752;23;20236;-86
2023/12/21 09:17:34;;;;;;;0.20;0.20;;;;;;;;;;6097118;23;20201;-88
2023/12/21 09:20:46;;;;;;;0.30;0.30;;;;;;;;;;6096671;23;20177;-91
2023/12/21 09:23:59;;;;;;;0.30;0.30;;;;;;;;;;6096900;23;20191;-88
2023/12/21 09:27:10;;;;;;;0.30;0.30;;;;;;;;;;6096116;23;20698;-90
2023/12/21 09:30:25;;;;;;;0.30;0.30;;;;;;;;;;6095236;23;20245;-90
2023/12/21 09:33:43;;;;;;;0.30;0.30;;;;;;;;;;6098210;23;20189;-91
2023/12/21 09:36:56;;;;;;;0.30;0.30;;;;;;;;;;6099522;23;20226;-89
2023/12/21 09:40:12;;;;;;;0.20;0.20;;;;;;;;;;6102017;23;20178;-92
2023/12/21 09:43:24;;;;;;;0.40;0.40;;;;;;;;;;6097061;23;20221;-92
2023/12/21 09:46:39;;;;;;;0.30;0.30;;;;;;;;;;6098816;23;20178;-91
2023/12/21 09:49:52;;;;;;;0.47;0.47;;;;;;;;;;6093955;23;20206;-89
2023/12/21 09:53:04;;;;;;;0.20;0.20;;;;;;;;;;6092934;23;20178;-91
2023/12/21 09:56:18;;;;;;;0.30;0.30;;;;;;;;;;6093067;23;20254;-89
2023/12/21 09:59:32;;;;;;;0.30;0.30;;;;;;;;;;6094011;23;20217;-91
2023/12/21 10:02:43;;;;;;;0.30;0.30;;;;;;;;;;6095975;23;20217;-90
2023/12/21 10:05:55;;;;;;;0.20;0.20;;;;;;;;;;6098652;23;20154;-88
2023/12/21 10:09:08;;;;;;;0.20;0.20;;;;;;;;;;6097717;23;20615;-88
2023/12/21 10:12:24;;;;;;;0.20;0.20;;;;;;;;;;6095129;23;20257;-89
2023/12/21 10:15:40;;;;;;;0.30;0.30;;;;;;;;;;6093621;23;20237;-90
2023/12/21 10:19:00;;;;;;;0.30;0.30;;;;;;;;;;6096197;23;20202;-88
2023/12/21 10:22:17;;;;;;;0.40;0.40;;;;;;;;;;6098526;23;20185;-88
2023/12/21 10:25:32;;;;;;;3.30;0.68;;;;;;;;;;6100174;23;20177;-91
2023/12/21 10:28:49;;;;;;;0.30;0.30;;;;;;;;;;6096710;23;20237;-90
2023/12/21 10:32:02;;;;;;;0.30;0.30;;;;;;;;;;6096329;23;20291;-89
2023/12/21 10:35:13;;;;;;;0.20;0.20;;;;;;;;;;6094541;23;20174;-91
2023/12/21 10:38:25;;;;;;;0.30;0.30;;;;;;;;;;6096910;23;20182;-92
2023/12/21 10:41:37;;;;;;;0.20;0.20;;;;;;;;;;6093928;23;20174;-89
2023/12/21 10:44:52;;;;;;;0.30;0.30;;;;;;;;;;6096903;23;20162;-90
2023/12/21 10:48:11;;;;;;;0.22;0.22;;;;;;;;;;6095835;23;20174;-88
2023/12/21 10:51:23;;;;;;;0.28;0.28;;;;;;;;;;6096370;23;20280;-87
2023/12/21 10:54:34;;;;;;;0.20;0.20;;;;;;;;;;6099289;23;20174;-89
2023/12/21 10:57:51;;;;;;;0.23;0.23;;;;;;;;;;6098612;23;20221;-88
2023/12/21 11:01:06;;;;;;;0.75;0.75;;;;;;;;;;6098200;23;20198;-88
2023/12/21 11:04:19;;;;;;;0.20;0.20;;;;;;;;;;6099024;23;20174;-87
2023/12/21 11:07:32;;;;;;;0.28;0.28;;;;;;;;;;6100392;23;20166;-89
2023/12/21 11:10:47;;;;;;;0.30;0.30;;;;;;;;;;6103734;23;20174;-88
2023/12/21 11:14:01;;;;;;;0.57;0.38;;;;;;;;;;6101030;23;20182;-88
2023/12/21 11:17:14;;;;;;;0.30;0.30;;;;;;;;;;6099479;23;20185;-89
2023/12/21 11:20:28;;;;;;;0.30;0.30;;;;;;;;;;6097628;23;20232;-90
2023/12/21 11:23:45;;;;;;;0.30;0.30;;;;;;;;;;6096501;23;20302;-89
2023/12/21 11:27:01;;;;;;;0.30;0.30;;;;;;;;;;6098169;23;20206;-90
2023/12/21 11:30:14;;;;;;;0.20;0.20;;;;;;;;;;6100801;23;20178;-92
2023/12/21 11:33:32;;;;;;;0.20;0.20;;;;;;;;;;6097761;23;20173;-89
2023/12/21 11:36:43;;;;;;;0.20;0.20;;;;;;;;;;6097969;23;20190;-90
2023/12/21 11:39:58;;;;;;;0.20;0.20;;;;;;;;;;6096015;23;20201;-90
2023/12/21 11:43:22;;;;;;;0.20;0.20;;;;;;;;;;6098475;23;20203;-90
2023/12/21 11:46:35;;;;;;;0.20;0.20;;;;;;;;;;6100069;23;20174;-90
2023/12/21 11:49:49;;;;;;;0.20;0.20;;;;;;;;;;6099106;23;20222;-89
2023/12/21 11:53:07;;;;;;;0.30;0.30;;;;;;;;;;6099294;23;20170;-88
2023/12/21 11:56:19;;;;;;;1.08;0.60;;;;;;;;;;6099583;23;20174;-89
2023/12/21 11:59:32;;;;;;;0.20;0.20;;;;;;;;;;6098639;23;20201;-89
2023/12/21 12:02:45;;;;;;;0.20;0.20;;;;;;;;;;6098356;23;20231;-88
2023/12/21 12:06:06;;;;;;;0.73;0.52;;;;;;;;;;6098453;23;20173;-89
2023/12/21 12:09:19;;;;;;;0.30;0.30;;;;;;;;;;6097170;23;20190;-87
2023/12/21 12:12:31;;;;;;;0.28;0.28;;;;;;;;;;6095608;23;20173;-87
2023/12/21 12:15:47;;;;;;;0.20;0.20;;;;;;;;;;6094049;23;20270;-89
2023/12/21 12:18:58;;;;;;;0.40;0.40;;;;;;;;;;6094439;23;20667;-86
2023/12/21 12:22:14;;;;;;;0.95;0.55;;;;;;;;;;6094899;23;20186;-90
2023/12/21 12:25:26;;;;;;;0.30;0.30;;;;;;;;;;6096900;23;20230;-90
2023/12/21 12:28:40;;;;;;;0.57;0.57;;;;;;;;;;6094420;23;20199;-88
2023/12/21 12:31:52;;;;;;;0.20;0.20;;;;;;;;;;6094742;23;20190;-88
2023/12/21 12:35:06;;;;;;;0.20;0.20;;;;;;;;;;6095374;23;20227;-90
2023/12/21 12:38:24;;;;;;;0.25;0.25;;;;;;;;;;6098195;23;20245;-93
2023/12/21 12:41:36;;;;;;;0.30;0.30;;;;;;;;;;6097298;23;20170;-90
2023/12/21 12:44:51;;;;;;;0.20;0.20;;;;;;;;;;6093786;23;20178;-89
2023/12/21 12:48:03;;;;;;;0.30;0.30;;;;;;;;;;6095556;23;20234;-88
2023/12/21 12:51:16;;;;;;;0.20;0.20;;;;;;;;;;6094938;23;20231;-92
2023/12/21 12:54:32;;;;;;;0.30;0.30;;;;;;;;;;6095015;23;20177;-88
2023/12/21 12:57:46;;;;;;;0.40;0.40;;;;;;;;;;6093193;23;20174;-89
2023/12/21 13:00:59;;;;;;;0.30;0.30;;;;;;;;;;6095215;23;20198;-92
2023/12/21 13:04:12;;;;;;;0.30;0.30;;;;;;;;;;6095700;23;20199;-90
2023/12/21 13:07:25;;;;;;;0.30;0.30;;;;;;;;;;6098674;23;20185;-90
2023/12/21 13:10:39;;;;;;;0.20;0.20;;;;;;;;;;6097065;23;20189;-90
2023/12/21 13:13:52;;;;;;;0.50;0.50;;;;;;;;;;6096385;23;20202;-91
2023/12/21 13:17:06;;;;;;;0.20;0.20;;;;;;;;;;6098373;23;20663;-90
2023/12/21 13:20:17;;;;;;;0.65;0.63;;;;;;;;;;6097577;23;20246;-88
2023/12/21 13:23:32;;;;;;;0.30;0.30;;;;;;;;;;6093783;23;20286;-89
2023/12/21 13:26:46;;;;;;;0.30;0.30;;;;;;;;;;6090339;23;20188;-89
2023/12/21 13:29:59;;;;;;;0.30;0.30;;;;;;;;;;6093121;23;20178;-90
2023/12/21 13:33:11;;;;;;;0.30;0.30;;;;;;;;;;6091594;23;20196;-92
2023/12/21 13:36:24;;;;;;;0.50;0.50;;;;;;;;;;6092259;23;20206;-90
2023/12/21 13:39:35;;;;;;;0.30;0.30;;;;;;;;;;6091174;23;20178;-88
2023/12/21 13:42:49;;;;;;;0.30;0.30;;;;;;;;;;6097693;23;20253;-91
2023/12/21 13:46:02;;;;;;;0.30;0.30;;;;;;;;;;6098030;23;20174;-91
2023/12/21 13:49:14;;;;;;;0.20;0.20;;;;;;;;;;6097507;23;20254;-88
2023/12/21 13:52:26;;;;;;;0.25;0.25;;;;;;;;;;6096555;23;20158;-91
2023/12/21 13:55:39;;;;;;;0.30;0.30;;;;;;;;;;6095009;23;20178;-90
2023/12/21 13:58:52;;;;;;;0.30;0.30;;;;;;;;;;6095563;23;20232;-90
2023/12/21 14:02:03;;;;;;;0.40;0.40;;;;;;;;;;6096374;23;20204;-92
2023/12/21 14:05:16;;;;;;;0.30;0.30;;;;;;;;;;6096934;23;20150;-89
2023/12/21 14:08:27;;;;;;;0.30;0.30;;;;;;;;;;6096645;23;20169;-91
2023/12/21 14:11:40;;;;;;;0.40;0.40;;;;;;;;;;6095784;23;20537;-90
2023/12/21 14:14:54;;;;;;;0.30;0.30;;;;;;;;;;6097813;23;20177;-90
2023/12/21 14:18:06;;;;;;;0.30;0.30;;;;;;;;;;6096473;23;20161;-91
2023/12/21 14:21:17;;;;;;;0.30;0.30;;;;;;;;;;6094334;23;20177;-89
2023/12/21 14:24:29;;;;;;;0.30;0.30;;;;;;;;;;6098721;23;20186;-90
2023/12/21 14:27:42;;;;;;;0.47;0.45;;;;;;;;;;6101045;23;20173;-90
2023/12/21 14:30:58;;;;;;;0.30;0.30;;;;;;;;;;6099272;23;20682;-90
2023/12/21 14:34:10;;;;;;;0.30;0.30;;;;;;;;;;6095741;23;20190;-89
2023/12/21 14:37:30;;;;;;;0.50;0.50;;;;;;;;;;6099458;23;20247;-89
2023/12/21 14:40:41;;;;;;;0.30;0.30;;;;;;;;;;6075368;23;20271;-89
2023/12/21 14:43:53;;;;;;;0.20;0.20;;;;;;;;;;6089204;23;20169;-90
2023/12/21 14:47:06;;;;;;;0.28;0.28;;;;;;;;;;6098059;23;20158;-89
2023/12/21 14:50:20;;;;;;;0.20;0.20;;;;;;;;;;6100213;23;20149;-90
2023/12/21 14:53:32;;;;;;;0.50;0.50;;;;;;;;;;6097709;23;20183;-92
2023/12/21 14:56:44;;;;;;;0.35;0.35;;;;;;;;;;6098466;23;20191;-92
2023/12/21 14:59:57;;;;;;;0.30;0.30;;;;;;;;;;6094198;23;20201;-91
2023/12/21 15:03:10;;;;;;;0.20;0.20;;;;;;;;;;6098719;23;20228;-91
2023/12/21 15:06:23;;;;;;;0.30;0.30;;;;;;;;;;6097115;23;20233;-91
2023/12/21 15:09:37;;;;;;;0.45;0.45;;;;;;;;;;6095556;23;20174;-93
2023/12/21 17:03:40;;;;;;;0.30;0.30;;;;;;;;;;5983077;23;20299;-90
2023/12/21 17:06:54;;;;;;;0.45;0.45;;;;;;;;;;6008637;23;20171;-92
2023/12/21 17:10:06;;;;;;;0.52;0.43;;;;;;;;;;6007624;23;20205;-90
2023/12/21 17:13:18;;;;;;;0.20;0.20;;;;;;;;;;6006572;23;20618;-89
2023/12/21 17:16:30;;;;;;;0.45;0.45;;;;;;;;;;6008759;23;20277;-91
2023/12/21 17:19:44;;;;;;;0.30;0.30;;;;;;;;;;6009347;23;20195;-89
2023/12/21 17:22:56;;;;;;;0.30;0.30;;;;;;;;;;6010422;23;20175;-87
2023/12/21 17:26:08;;;;;;;0.20;0.20;;;;;;;;;;6009141;23;20193;-86
2023/12/21 17:29:20;;;;;;;0.20;0.20;;;;;;;;;;6008801;23;20184;-87
2023/12/21 17:32:32;;;;;;;0.30;0.30;;;;;;;;;;6009219;23;20236;-88
2023/12/21 17:35:46;;;;;;;0.30;0.30;;;;;;;;;;6009315;23;20171;-89
2023/12/21 17:38:58;;;;;;;0.30;0.30;;;;;;;;;;6007518;23;20562;-87
2023/12/21 17:42:10;;;;;;;0.25;0.25;;;;;;;;;;6009832;23;20187;-88
2023/12/21 17:45:22;;;;;;;0.32;0.32;;;;;;;;;;6010726;23;20274;-89
2023/12/21 17:48:33;;;;;;;0.30;0.30;;;;;;;;;;6008832;23;20252;-89
2023/12/21 17:51:47;;;;;;;0.30;0.30;;;;;;;;;;6009003;23;20250;-89
2023/12/21 17:55:01;;;;;;;0.30;0.30;;;;;;;;;;6008302;23;20491;-88
2023/12/21 17:58:12;;;;;;;0.30;0.30;;;;;;;;;;6008914;23;20175;-87
2023/12/21 18:01:23;;;;;;;1.40;0.60;;;;;;;;;;6009541;23;20207;-88
2023/12/21 18:04:35;;;;;;;0.30;0.30;;;;;;;;;;6025631;23;20172;-90
2023/12/21 18:07:48;;;;;;;0.57;0.30;;;;;;;;;;6024109;23;20230;-88
2023/12/21 18:10:59;;;;;;;0.20;0.20;;;;;;;;;;6022999;23;20248;-89
2023/12/21 18:14:10;;;;;;;0.30;0.30;;;;;;;;;;6009770;23;20239;-88
2023/12/21 18:17:22;;;;;;;0.30;0.30;;;;;;;;;;6024251;23;20160;-92
2023/12/21 18:20:34;;;;;;;0.20;0.20;;;;;;;;;;6023960;23;20198;-89
2023/12/21 18:23:48;;;;;;;0.30;0.30;;;;;;;;;;6023630;23;20213;-92
2023/12/21 18:27:00;;;;;;;0.30;0.30;;;;;;;;;;6022727;23;20746;-87
2023/12/21 18:30:12;;;;;;;1.23;0.57;;;;;;;;;;6007546;23;20163;-89
2023/12/21 18:33:24;;;;;;;3.78;0.90;;;;;;;;;;6021743;23;20172;-87
2023/12/21 18:36:36;;;;;;;0.93;0.50;;;;;;;;;;6022548;23;20505;-93
2023/12/21 18:39:51;;;;;;;0.60;0.60;;;;;;;;;;6022823;23;20202;-90
2023/12/21 18:43:02;;;;;;;1.00;0.63;;;;;;;;;;6021353;23;20171;-88
2023/12/21 18:46:14;;;;;;;1.55;0.80;;;;;;;;;;6023561;23;20180;-89
2023/12/21 18:49:26;;;;;;;3.10;0.52;;;;;;;;;;6021697;23;20167;-89
2023/12/21 18:52:38;;;;;;;0.93;0.50;;;;;;;;;;6024048;23;20183;-90
2023/12/21 18:55:50;;;;;;;0.50;0.50;;;;;;;;;;6021573;23;20172;-87
2023/12/21 18:59:02;;;;;;;0.68;0.60;;;;;;;;;;6022986;23;20171;-87
2023/12/21 19:02:15;;;;;;;0.55;0.55;;;;;;;;;;6021966;23;20308;-90
2023/12/21 19:05:26;;;;;;;1.27;0.75;;;;;;;;;;6022225;23;20172;-88
2023/12/21 19:08:38;;;;;;;1.40;0.90;;;;;;;;;;6022435;23;20171;-90
2023/12/21 19:11:51;;;;;;;1.00;0.63;;;;;;;;;;6022579;23;20176;-89
2023/12/21 19:15:03;;;;;;;0.77;0.50;;;;;;;;;;6023749;23;20201;-92
2023/12/21 19:18:18;;;;;;;0.73;0.60;;;;;;;;;;6023094;23;20209;-87
2023/12/21 19:21:30;;;;;;;3.25;1.20;;;;;;;;;;6007588;23;20200;-89
2023/12/21 19:24:41;;;;;;;0.93;0.60;;;;;;;;;;6024524;23;20168;-88
2023/12/21 19:27:55;;;;;;;1.58;0.80;;;;;;;;;;6024007;23;20176;-87
2023/12/21 19:31:08;;;;;;;1.10;0.70;;;;;;;;;;6022687;23;20242;-88
2023/12/21 19:34:20;;;;;;;0.80;0.50;;;;;;;;;;6022801;23;20171;-89
2023/12/21 19:37:31;;;;;;;0.77;0.70;;;;;;;;;;6023931;23;20156;-89
2023/12/21 19:40:43;;;;;;;1.60;0.70;;;;;;;;;;6020814;23;20214;-88
2023/12/21 19:43:57;;;;;;;0.93;0.70;;;;;;;;;;6007062;23;20229;-87
2023/12/21 19:47:08;;;;;;;1.10;0.75;;;;;;;;;;6022592;23;20172;-88
2023/12/21 19:50:20;;;;;;;1.00;0.70;;;;;;;;;;6024670;23;20172;-87
2023/12/21 19:53:31;;;;;;;2.88;0.70;;;;;;;;;;6023403;23;20252;-90
2023/12/21 19:56:43;;;;;;;0.70;0.60;;;;;;;;;;6022152;23;20180;-87
2023/12/21 19:59:56;;;;;;;1.13;0.60;;;;;;;;;;6022968;23;20200;-89
2023/12/21 20:03:07;;;;;;;0.55;0.50;;;;;;;;;;6024484;23;20167;-89
2023/12/21 20:06:18;;;;;;;1.48;0.98;;;;;;;;;;6021969;23;20201;-90
2023/12/21 20:09:30;;;;;;;0.80;0.52;;;;;;;;;;6018814;23;20181;-92
2023/12/21 20:12:42;;;;;;;1.00;0.65;;;;;;;;;;6017204;23;20221;-88
2023/12/21 20:15:55;;;;;;;1.15;0.80;;;;;;;;;;6019305;23;20197;-91
2023/12/21 20:19:07;;;;;;;0.63;0.50;;;;;;;;;;6004408;23;20180;-90
2023/12/21 20:22:19;;;;;;;1.30;0.80;;;;;;;;;;6019925;23;20171;-90
2023/12/21 20:25:30;;;;;;;3.17;1.52;;;;;;;;;;6020570;23;20260;-89
2023/12/21 20:28:42;;;;;;;10.77;4.43;;;;;;;;;;6020557;23;20624;-90
2023/12/21 20:31:54;;;;;;;3.17;0.77;;;;;;;;;;6019511;23;20511;-88
2023/12/21 20:35:06;;;;;;;1.30;0.70;;;;;;;;;;6020903;23;20176;-91
2023/12/21 20:38:20;;;;;;;0.65;0.50;;;;;;;;;;6020112;23;20265;-89
2023/12/21 20:41:32;;;;;;;1.77;0.90;;;;;;;;;;6020829;23;20313;-88
2023/12/21 20:44:45;;;;;;;1.20;0.70;;;;;;;;;;6018700;23;20176;-87
2023/12/21 20:47:58;;;;;;;3.10;0.50;;;;;;;;;;6003884;23;20195;-90
2023/12/21 20:51:10;;;;;;;2.95;0.70;;;;;;;;;;6018739;23;20608;-89
2023/12/21 20:54:21;;;;;;;1.67;0.57;;;;;;;;;;6005691;23;20168;-90
2023/12/21 20:57:32;;;;;;;2.88;0.90;;;;;;;;;;6021082;23;20171;-91
2023/12/21 21:00:43;;;;;;;0.88;0.68;;;;;;;;;;6021134;23;20200;-88
2023/12/21 21:03:55;;;;;;;1.48;0.80;;;;;;;;;;6020372;23;20176;-91
2023/12/21 21:07:08;;;;;;;0.80;0.60;;;;;;;;;;6019251;23;20246;-90